sensor_id;sensor_type;location;lat;lon;timestamp;P1;durP1;ratioP1;P2;durP2;ratioP2
51194;SDS011;37259;49.972;19.850;2022-12-10T00:00:42;16.1;;;8.3;;
51194;SDS011;37259;49.972;19.850;2022-12-10T00:01:42;16.1;;;8.3;;
51194;SDS011;37259;49.972;19.850;2022-12-10T00:02:42;16.1;;;8.3;;
51194;SDS011;37259;49.972;19.850;2022-12-10T00:03:42;16.1;;;8.3;;
51194;SDS011;37259;49.972;19.850;2022-12-10T00:04:42;16.1;;;8.3;;
51194;SDS011;37259;49.972;19.850;2022-12-10T00:05:42;16.1;;;8.3;;
51194;SDS011;37259;49.972;19.850;2022-12-10T00:06:42;16.1;;;8.3;;
51194;SDS011;37259;49.972;19.850;2022-12-10T00:07:42;13.5;;;8.7;;
51194;SDS011;37259;49.972;19.850;2022-12-10T00:08:42;13.5;;;8.7;;
51194;SDS011;37259;49.972;19.850;2022-12-10T00:09:42;13.5;;;8.7;;
51194;SDS011;37259;49.972;19.850;2022-12-10T00:10:42;13.5;;;8.7;;
51194;SDS011;37259;49.972;19.850;2022-12-10T00:11:42;13.5;;;8.7;;
51194;SDS011;37259;49.972;19.850;2022-12-10T00:12:42;13.5;;;8.7;;
51194;SDS011;37259;49.972;19.850;2022-12-10T00:13:42;13.5;;;8.7;;
51194;SDS011;37259;49.972;19.850;2022-12-10T00:14:42;13.5;;;8.7;;
51194;SDS011;37259;49.972;19.850;2022-12-10T00:15:42;13.5;;;8.7;;
51194;SDS011;37259;49.972;19.850;2022-12-10T00:16:42;13.5;;;8.7;;
51194;SDS011;37259;49.972;19.850;2022-12-10T00:17:42;13.5;;;8.7;;
51194;SDS011;37259;49.972;19.850;2022-12-10T00:18:42;13.5;;;8.7;;
51194;SDS011;37259;49.972;19.850;2022-12-10T00:19:42;13.5;;;8.7;;
51194;SDS011;37259;49.972;19.850;2022-12-10T00:20:42;13.5;;;8.7;;
51194;SDS011;37259;49.972;19.850;2022-12-10T00:21:42;13.5;;;8.7;;
51194;SDS011;37259;49.972;19.850;2022-12-10T00:22:42;13.5;;;8.7;;
51194;SDS011;37259;49.972;19.850;2022-12-10T00:23:42;13.5;;;8.7;;
51194;SDS011;37259;49.972;19.850;2022-12-10T00:24:42;13.5;;;8.7;;
51194;SDS011;37259;49.972;19.850;2022-12-10T00:25:42;13.5;;;8.7;;
51194;SDS011;37259;49.972;19.850;2022-12-10T00:26:42;13.5;;;8.7;;
51194;SDS011;37259;49.972;19.850;2022-12-10T00:27:42;13.5;;;8.7;;
51194;SDS011;37259;49.972;19.850;2022-12-10T00:28:42;13.5;;;8.7;;
51194;SDS011;37259;49.972;19.850;2022-12-10T00:29:42;13.5;;;8.7;;
51194;SDS011;37259;49.972;19.850;2022-12-10T00:30:42;13.5;;;8.7;;
51194;SDS011;37259;49.972;19.850;2022-12-10T00:31:42;13.5;;;8.7;;
51194;SDS011;37259;49.972;19.850;2022-12-10T00:32:42;13.5;;;8.7;;
51194;SDS011;37259;49.972;19.850;2022-12-10T00:33:42;13.5;;;8.7;;
51194;SDS011;37259;49.972;19.850;2022-12-10T00:34:42;13.5;;;8.7;;
51194;SDS011;37259;49.972;19.850;2022-12-10T00:35:42;13.5;;;8.7;;
51194;SDS011;37259;49.972;19.850;2022-12-10T00:36:42;13.5;;;8.7;;
51194;SDS011;37259;49.972;19.850;2022-12-10T00:37:42;12.1;;;7;;
51194;SDS011;37259;49.972;19.850;2022-12-10T00:39:42;12.1;;;7;;
51194;SDS011;37259;49.972;19.850;2022-12-10T00:40:42;12.1;;;7;;
51194;SDS011;37259;49.972;19.850;2022-12-10T00:41:42;12.1;;;7;;
51194;SDS011;37259;49.972;19.850;2022-12-10T00:42:42;12.1;;;7;;
51194;SDS011;37259;49.972;19.850;2022-12-10T00:43:42;12.1;;;7;;
51194;SDS011;37259;49.972;19.850;2022-12-10T00:44:42;12.1;;;7;;
51194;SDS011;37259;49.972;19.850;2022-12-10T00:45:42;12.1;;;7;;
51194;SDS011;37259;49.972;19.850;2022-12-10T00:46:42;12.1;;;7;;
51194;SDS011;37259;49.972;19.850;2022-12-10T00:47:42;12.1;;;7;;
51194;SDS011;37259;49.972;19.850;2022-12-10T00:48:42;12.1;;;7;;
51194;SDS011;37259;49.972;19.850;2022-12-10T00:49:42;12.1;;;7;;
51194;SDS011;37259;49.972;19.850;2022-12-10T00:50:42;12.1;;;7;;
51194;SDS011;37259;49.972;19.850;2022-12-10T00:51:42;12.1;;;7;;
51194;SDS011;37259;49.972;19.850;2022-12-10T00:52:42;12.1;;;7;;
51194;SDS011;37259;49.972;19.850;2022-12-10T00:53:42;12.1;;;7;;
51194;SDS011;37259;49.972;19.850;2022-12-10T00:54:42;12.1;;;7;;
51194;SDS011;37259;49.972;19.850;2022-12-10T00:55:42;12.1;;;7;;
51194;SDS011;37259;49.972;19.850;2022-12-10T00:56:42;12.1;;;7;;
51194;SDS011;37259;49.972;19.850;2022-12-10T00:57:42;12.1;;;7;;
51194;SDS011;37259;49.972;19.850;2022-12-10T00:58:42;12.1;;;7;;
51194;SDS011;37259;49.972;19.850;2022-12-10T00:59:42;12.1;;;7;;
51194;SDS011;37259;49.972;19.850;2022-12-10T01:00:42;12.1;;;7;;
51194;SDS011;37259;49.972;19.850;2022-12-10T01:01:42;12.1;;;7;;
51194;SDS011;37259;49.972;19.850;2022-12-10T01:02:42;12.1;;;7;;
51194;SDS011;37259;49.972;19.850;2022-12-10T01:03:42;12.1;;;7;;
51194;SDS011;37259;49.972;19.850;2022-12-10T01:04:42;12.1;;;7;;
51194;SDS011;37259;49.972;19.850;2022-12-10T01:05:42;12.1;;;7;;
51194;SDS011;37259;49.972;19.850;2022-12-10T01:06:44;12.1;;;7;;
51194;SDS011;37259;49.972;19.850;2022-12-10T01:07:42;8.6;;;6.1;;
51194;SDS011;37259;49.972;19.850;2022-12-10T01:08:42;8.6;;;6.1;;
51194;SDS011;37259;49.972;19.850;2022-12-10T01:09:42;8.6;;;6.1;;
51194;SDS011;37259;49.972;19.850;2022-12-10T01:10:42;8.6;;;6.1;;
51194;SDS011;37259;49.972;19.850;2022-12-10T01:11:42;8.6;;;6.1;;
51194;SDS011;37259;49.972;19.850;2022-12-10T01:12:42;8.6;;;6.1;;
51194;SDS011;37259;49.972;19.850;2022-12-10T01:13:42;8.6;;;6.1;;
51194;SDS011;37259;49.972;19.850;2022-12-10T01:14:42;8.6;;;6.1;;
51194;SDS011;37259;49.972;19.850;2022-12-10T01:15:42;8.6;;;6.1;;
51194;SDS011;37259;49.972;19.850;2022-12-10T01:16:42;8.6;;;6.1;;
51194;SDS011;37259;49.972;19.850;2022-12-10T01:17:42;8.6;;;6.1;;
51194;SDS011;37259;49.972;19.850;2022-12-10T01:18:42;8.6;;;6.1;;
51194;SDS011;37259;49.972;19.850;2022-12-10T01:19:42;8.6;;;6.1;;
51194;SDS011;37259;49.972;19.850;2022-12-10T01:20:42;8.6;;;6.1;;
51194;SDS011;37259;49.972;19.850;2022-12-10T01:21:42;8.6;;;6.1;;
51194;SDS011;37259;49.972;19.850;2022-12-10T01:22:42;8.6;;;6.1;;
51194;SDS011;37259;49.972;19.850;2022-12-10T01:23:43;8.6;;;6.1;;
51194;SDS011;37259;49.972;19.850;2022-12-10T01:24:42;8.6;;;6.1;;
51194;SDS011;37259;49.972;19.850;2022-12-10T01:25:42;8.6;;;6.1;;
51194;SDS011;37259;49.972;19.850;2022-12-10T01:26:42;8.6;;;6.1;;
51194;SDS011;37259;49.972;19.850;2022-12-10T01:27:42;8.6;;;6.1;;
51194;SDS011;37259;49.972;19.850;2022-12-10T01:28:42;8.6;;;6.1;;
51194;SDS011;37259;49.972;19.850;2022-12-10T01:29:42;8.6;;;6.1;;
51194;SDS011;37259;49.972;19.850;2022-12-10T01:30:42;8.6;;;6.1;;
51194;SDS011;37259;49.972;19.850;2022-12-10T01:31:42;8.6;;;6.1;;
51194;SDS011;37259;49.972;19.850;2022-12-10T01:32:42;8.6;;;6.1;;
51194;SDS011;37259;49.972;19.850;2022-12-10T01:33:42;8.6;;;6.1;;
51194;SDS011;37259;49.972;19.850;2022-12-10T01:34:42;8.6;;;6.1;;
51194;SDS011;37259;49.972;19.850;2022-12-10T01:35:42;8.6;;;6.1;;
51194;SDS011;37259;49.972;19.850;2022-12-10T01:36:42;8.6;;;6.1;;
51194;SDS011;37259;49.972;19.850;2022-12-10T01:37:42;12.9;;;6.4;;
51194;SDS011;37259;49.972;19.850;2022-12-10T01:38:42;12.9;;;6.4;;
51194;SDS011;37259;49.972;19.850;2022-12-10T01:39:42;12.9;;;6.4;;
51194;SDS011;37259;49.972;19.850;2022-12-10T01:40:42;12.9;;;6.4;;
51194;SDS011;37259;49.972;19.850;2022-12-10T01:41:43;12.9;;;6.4;;
51194;SDS011;37259;49.972;19.850;2022-12-10T01:42:42;12.9;;;6.4;;
51194;SDS011;37259;49.972;19.850;2022-12-10T01:43:58;12.9;;;6.4;;
51194;SDS011;37259;49.972;19.850;2022-12-10T01:45:14;12.9;;;6.4;;
51194;SDS011;37259;49.972;19.850;2022-12-10T01:45:42;12.9;;;6.4;;
51194;SDS011;37259;49.972;19.850;2022-12-10T01:46:42;12.9;;;6.4;;
51194;SDS011;37259;49.972;19.850;2022-12-10T01:47:42;12.9;;;6.4;;
51194;SDS011;37259;49.972;19.850;2022-12-10T01:48:42;12.9;;;6.4;;
51194;SDS011;37259;49.972;19.850;2022-12-10T01:49:42;12.9;;;6.4;;
51194;SDS011;37259;49.972;19.850;2022-12-10T01:50:42;12.9;;;6.4;;
51194;SDS011;37259;49.972;19.850;2022-12-10T01:51:43;12.9;;;6.4;;
51194;SDS011;37259;49.972;19.850;2022-12-10T01:52:42;12.9;;;6.4;;
51194;SDS011;37259;49.972;19.850;2022-12-10T01:53:42;12.9;;;6.4;;
51194;SDS011;37259;49.972;19.850;2022-12-10T01:54:44;12.9;;;6.4;;
51194;SDS011;37259;49.972;19.850;2022-12-10T01:55:44;12.9;;;6.4;;
51194;SDS011;37259;49.972;19.850;2022-12-10T01:56:43;12.9;;;6.4;;
51194;SDS011;37259;49.972;19.850;2022-12-10T01:57:42;12.9;;;6.4;;
51194;SDS011;37259;49.972;19.850;2022-12-10T01:58:42;12.9;;;6.4;;
51194;SDS011;37259;49.972;19.850;2022-12-10T01:59:42;12.9;;;6.4;;
51194;SDS011;37259;49.972;19.850;2022-12-10T02:00:45;12.9;;;6.4;;
51194;SDS011;37259;49.972;19.850;2022-12-10T02:01:43;12.9;;;6.4;;
51194;SDS011;37259;49.972;19.850;2022-12-10T02:02:44;12.9;;;6.4;;
51194;SDS011;37259;49.972;19.850;2022-12-10T02:03:47;12.9;;;6.4;;
51194;SDS011;37259;49.972;19.850;2022-12-10T02:04:43;12.9;;;6.4;;
51194;SDS011;37259;49.972;19.850;2022-12-10T02:05:43;12.9;;;6.4;;
51194;SDS011;37259;49.972;19.850;2022-12-10T02:06:44;12.9;;;6.4;;
51194;SDS011;37259;49.972;19.850;2022-12-10T02:07:48;14.5;;;8.6;;
51194;SDS011;37259;49.972;19.850;2022-12-10T02:08:44;14.5;;;8.6;;
51194;SDS011;37259;49.972;19.850;2022-12-10T02:09:42;14.5;;;8.6;;
51194;SDS011;37259;49.972;19.850;2022-12-10T02:10:44;14.5;;;8.6;;
51194;SDS011;37259;49.972;19.850;2022-12-10T02:11:43;14.5;;;8.6;;
51194;SDS011;37259;49.972;19.850;2022-12-10T02:12:43;14.5;;;8.6;;
51194;SDS011;37259;49.972;19.850;2022-12-10T02:13:43;14.5;;;8.6;;
51194;SDS011;37259;49.972;19.850;2022-12-10T02:14:44;14.5;;;8.6;;
51194;SDS011;37259;49.972;19.850;2022-12-10T02:15:43;14.5;;;8.6;;
51194;SDS011;37259;49.972;19.850;2022-12-10T02:16:44;14.5;;;8.6;;
51194;SDS011;37259;49.972;19.850;2022-12-10T02:17:42;14.5;;;8.6;;
51194;SDS011;37259;49.972;19.850;2022-12-10T02:18:43;14.5;;;8.6;;
51194;SDS011;37259;49.972;19.850;2022-12-10T02:19:51;14.5;;;8.6;;
51194;SDS011;37259;49.972;19.850;2022-12-10T02:20:43;14.5;;;8.6;;
51194;SDS011;37259;49.972;19.850;2022-12-10T02:21:42;14.5;;;8.6;;
51194;SDS011;37259;49.972;19.850;2022-12-10T02:22:43;14.5;;;8.6;;
51194;SDS011;37259;49.972;19.850;2022-12-10T02:23:43;14.5;;;8.6;;
51194;SDS011;37259;49.972;19.850;2022-12-10T02:24:42;14.5;;;8.6;;
51194;SDS011;37259;49.972;19.850;2022-12-10T02:25:44;14.5;;;8.6;;
51194;SDS011;37259;49.972;19.850;2022-12-10T02:26:43;14.5;;;8.6;;
51194;SDS011;37259;49.972;19.850;2022-12-10T02:27:44;14.5;;;8.6;;
51194;SDS011;37259;49.972;19.850;2022-12-10T02:28:44;14.5;;;8.6;;
51194;SDS011;37259;49.972;19.850;2022-12-10T02:29:42;14.5;;;8.6;;
51194;SDS011;37259;49.972;19.850;2022-12-10T02:30:42;14.5;;;8.6;;
51194;SDS011;37259;49.972;19.850;2022-12-10T02:31:43;14.5;;;8.6;;
51194;SDS011;37259;49.972;19.850;2022-12-10T02:32:42;14.5;;;8.6;;
51194;SDS011;37259;49.972;19.850;2022-12-10T02:33:42;14.5;;;8.6;;
51194;SDS011;37259;49.972;19.850;2022-12-10T02:34:42;14.5;;;8.6;;
51194;SDS011;37259;49.972;19.850;2022-12-10T02:35:42;14.5;;;8.6;;
51194;SDS011;37259;49.972;19.850;2022-12-10T02:36:42;14.5;;;8.6;;
51194;SDS011;37259;49.972;19.850;2022-12-10T02:37:43;13.7;;;8.3;;
51194;SDS011;37259;49.972;19.850;2022-12-10T02:38:42;13.7;;;8.3;;
51194;SDS011;37259;49.972;19.850;2022-12-10T02:39:43;13.7;;;8.3;;
51194;SDS011;37259;49.972;19.850;2022-12-10T02:40:42;13.7;;;8.3;;
51194;SDS011;37259;49.972;19.850;2022-12-10T02:41:45;13.7;;;8.3;;
51194;SDS011;37259;49.972;19.850;2022-12-10T02:42:42;13.7;;;8.3;;
51194;SDS011;37259;49.972;19.850;2022-12-10T02:43:42;13.7;;;8.3;;
51194;SDS011;37259;49.972;19.850;2022-12-10T02:44:42;13.7;;;8.3;;
51194;SDS011;37259;49.972;19.850;2022-12-10T02:45:42;13.7;;;8.3;;
51194;SDS011;37259;49.972;19.850;2022-12-10T02:46:42;13.7;;;8.3;;
51194;SDS011;37259;49.972;19.850;2022-12-10T02:47:42;13.7;;;8.3;;
51194;SDS011;37259;49.972;19.850;2022-12-10T02:48:42;13.7;;;8.3;;
51194;SDS011;37259;49.972;19.850;2022-12-10T02:49:42;13.7;;;8.3;;
51194;SDS011;37259;49.972;19.850;2022-12-10T02:50:42;13.7;;;8.3;;
51194;SDS011;37259;49.972;19.850;2022-12-10T02:51:42;13.7;;;8.3;;
51194;SDS011;37259;49.972;19.850;2022-12-10T02:52:42;13.7;;;8.3;;
51194;SDS011;37259;49.972;19.850;2022-12-10T02:53:42;13.7;;;8.3;;
51194;SDS011;37259;49.972;19.850;2022-12-10T02:54:43;13.7;;;8.3;;
51194;SDS011;37259;49.972;19.850;2022-12-10T02:55:47;13.7;;;8.3;;
51194;SDS011;37259;49.972;19.850;2022-12-10T02:56:42;13.7;;;8.3;;
51194;SDS011;37259;49.972;19.850;2022-12-10T02:57:43;13.7;;;8.3;;
51194;SDS011;37259;49.972;19.850;2022-12-10T02:58:43;13.7;;;8.3;;
51194;SDS011;37259;49.972;19.850;2022-12-10T02:59:46;13.7;;;8.3;;
51194;SDS011;37259;49.972;19.850;2022-12-10T03:00:43;13.7;;;8.3;;
51194;SDS011;37259;49.972;19.850;2022-12-10T03:01:43;13.7;;;8.3;;
51194;SDS011;37259;49.972;19.850;2022-12-10T03:02:45;13.7;;;8.3;;
51194;SDS011;37259;49.972;19.850;2022-12-10T03:03:42;13.7;;;8.3;;
51194;SDS011;37259;49.972;19.850;2022-12-10T03:04:43;13.7;;;8.3;;
51194;SDS011;37259;49.972;19.850;2022-12-10T03:05:43;13.7;;;8.3;;
51194;SDS011;37259;49.972;19.850;2022-12-10T03:06:42;15.4;;;7.8;;
51194;SDS011;37259;49.972;19.850;2022-12-10T03:07:44;15.4;;;7.8;;
51194;SDS011;37259;49.972;19.850;2022-12-10T03:08:43;15.4;;;7.8;;
51194;SDS011;37259;49.972;19.850;2022-12-10T03:09:44;15.4;;;7.8;;
51194;SDS011;37259;49.972;19.850;2022-12-10T03:10:43;15.4;;;7.8;;
51194;SDS011;37259;49.972;19.850;2022-12-10T03:11:42;15.4;;;7.8;;
51194;SDS011;37259;49.972;19.850;2022-12-10T03:12:42;15.4;;;7.8;;
51194;SDS011;37259;49.972;19.850;2022-12-10T03:13:43;15.4;;;7.8;;
51194;SDS011;37259;49.972;19.850;2022-12-10T03:14:42;15.4;;;7.8;;
51194;SDS011;37259;49.972;19.850;2022-12-10T03:15:42;15.4;;;7.8;;
51194;SDS011;37259;49.972;19.850;2022-12-10T03:16:43;15.4;;;7.8;;
51194;SDS011;37259;49.972;19.850;2022-12-10T03:17:42;15.4;;;7.8;;
51194;SDS011;37259;49.972;19.850;2022-12-10T03:18:42;15.4;;;7.8;;
51194;SDS011;37259;49.972;19.850;2022-12-10T03:19:43;15.4;;;7.8;;
51194;SDS011;37259;49.972;19.850;2022-12-10T03:20:42;15.4;;;7.8;;
51194;SDS011;37259;49.972;19.850;2022-12-10T03:21:42;15.4;;;7.8;;
51194;SDS011;37259;49.972;19.850;2022-12-10T03:22:42;15.4;;;7.8;;
51194;SDS011;37259;49.972;19.850;2022-12-10T03:23:42;15.4;;;7.8;;
51194;SDS011;37259;49.972;19.850;2022-12-10T03:24:42;15.4;;;7.8;;
51194;SDS011;37259;49.972;19.850;2022-12-10T03:25:42;15.4;;;7.8;;
51194;SDS011;37259;49.972;19.850;2022-12-10T03:26:42;15.4;;;7.8;;
51194;SDS011;37259;49.972;19.850;2022-12-10T03:27:42;15.4;;;7.8;;
51194;SDS011;37259;49.972;19.850;2022-12-10T03:28:45;15.4;;;7.8;;
51194;SDS011;37259;49.972;19.850;2022-12-10T03:29:43;15.4;;;7.8;;
51194;SDS011;37259;49.972;19.850;2022-12-10T03:30:42;15.4;;;7.8;;
51194;SDS011;37259;49.972;19.850;2022-12-10T03:31:42;15.4;;;7.8;;
51194;SDS011;37259;49.972;19.850;2022-12-10T03:32:42;15.4;;;7.8;;
51194;SDS011;37259;49.972;19.850;2022-12-10T03:33:42;15.4;;;7.8;;
51194;SDS011;37259;49.972;19.850;2022-12-10T03:34:42;15.4;;;7.8;;
51194;SDS011;37259;49.972;19.850;2022-12-10T03:35:42;15.4;;;7.8;;
51194;SDS011;37259;49.972;19.850;2022-12-10T03:36:42;19.8;;;11.3;;
51194;SDS011;37259;49.972;19.850;2022-12-10T03:37:42;19.8;;;11.3;;
51194;SDS011;37259;49.972;19.850;2022-12-10T03:38:42;19.8;;;11.3;;
51194;SDS011;37259;49.972;19.850;2022-12-10T03:39:42;19.8;;;11.3;;
51194;SDS011;37259;49.972;19.850;2022-12-10T03:40:42;19.8;;;11.3;;
51194;SDS011;37259;49.972;19.850;2022-12-10T03:41:42;19.8;;;11.3;;
51194;SDS011;37259;49.972;19.850;2022-12-10T03:42:42;19.8;;;11.3;;
51194;SDS011;37259;49.972;19.850;2022-12-10T03:43:50;19.8;;;11.3;;
51194;SDS011;37259;49.972;19.850;2022-12-10T03:44:42;19.8;;;11.3;;
51194;SDS011;37259;49.972;19.850;2022-12-10T03:45:42;19.8;;;11.3;;
51194;SDS011;37259;49.972;19.850;2022-12-10T03:46:42;19.8;;;11.3;;
51194;SDS011;37259;49.972;19.850;2022-12-10T03:47:42;19.8;;;11.3;;
51194;SDS011;37259;49.972;19.850;2022-12-10T03:48:42;19.8;;;11.3;;
51194;SDS011;37259;49.972;19.850;2022-12-10T03:49:42;19.8;;;11.3;;
51194;SDS011;37259;49.972;19.850;2022-12-10T03:50:42;19.8;;;11.3;;
51194;SDS011;37259;49.972;19.850;2022-12-10T03:51:42;19.8;;;11.3;;
51194;SDS011;37259;49.972;19.850;2022-12-10T03:52:42;19.8;;;11.3;;
51194;SDS011;37259;49.972;19.850;2022-12-10T03:53:42;19.8;;;11.3;;
51194;SDS011;37259;49.972;19.850;2022-12-10T03:54:42;19.8;;;11.3;;
51194;SDS011;37259;49.972;19.850;2022-12-10T03:55:42;19.8;;;11.3;;
51194;SDS011;37259;49.972;19.850;2022-12-10T03:56:42;19.8;;;11.3;;
51194;SDS011;37259;49.972;19.850;2022-12-10T03:57:42;19.8;;;11.3;;
51194;SDS011;37259;49.972;19.850;2022-12-10T03:58:42;19.8;;;11.3;;
51194;SDS011;37259;49.972;19.850;2022-12-10T03:59:42;19.8;;;11.3;;
51194;SDS011;37259;49.972;19.850;2022-12-10T04:00:42;19.8;;;11.3;;
51194;SDS011;37259;49.972;19.850;2022-12-10T04:01:42;19.8;;;11.3;;
51194;SDS011;37259;49.972;19.850;2022-12-10T04:02:42;19.8;;;11.3;;
51194;SDS011;37259;49.972;19.850;2022-12-10T04:03:42;19.8;;;11.3;;
51194;SDS011;37259;49.972;19.850;2022-12-10T04:04:42;19.8;;;11.3;;
51194;SDS011;37259;49.972;19.850;2022-12-10T04:05:42;19.8;;;11.3;;
51194;SDS011;37259;49.972;19.850;2022-12-10T04:06:42;23.6;;;14.7;;
51194;SDS011;37259;49.972;19.850;2022-12-10T04:07:42;23.6;;;14.7;;
51194;SDS011;37259;49.972;19.850;2022-12-10T04:08:42;23.6;;;14.7;;
51194;SDS011;37259;49.972;19.850;2022-12-10T04:09:42;23.6;;;14.7;;
51194;SDS011;37259;49.972;19.850;2022-12-10T04:10:42;23.6;;;14.7;;
51194;SDS011;37259;49.972;19.850;2022-12-10T04:11:42;23.6;;;14.7;;
51194;SDS011;37259;49.972;19.850;2022-12-10T04:12:42;23.6;;;14.7;;
51194;SDS011;37259;49.972;19.850;2022-12-10T04:13:42;23.6;;;14.7;;
51194;SDS011;37259;49.972;19.850;2022-12-10T04:14:42;23.6;;;14.7;;
51194;SDS011;37259;49.972;19.850;2022-12-10T04:15:42;23.6;;;14.7;;
51194;SDS011;37259;49.972;19.850;2022-12-10T04:16:42;23.6;;;14.7;;
51194;SDS011;37259;49.972;19.850;2022-12-10T04:17:42;23.6;;;14.7;;
51194;SDS011;37259;49.972;19.850;2022-12-10T04:18:42;23.6;;;14.7;;
51194;SDS011;37259;49.972;19.850;2022-12-10T04:19:42;23.6;;;14.7;;
51194;SDS011;37259;49.972;19.850;2022-12-10T04:20:42;23.6;;;14.7;;
51194;SDS011;37259;49.972;19.850;2022-12-10T04:21:43;23.6;;;14.7;;
51194;SDS011;37259;49.972;19.850;2022-12-10T04:22:42;23.6;;;14.7;;
51194;SDS011;37259;49.972;19.850;2022-12-10T04:23:42;23.6;;;14.7;;
51194;SDS011;37259;49.972;19.850;2022-12-10T04:24:42;23.6;;;14.7;;
51194;SDS011;37259;49.972;19.850;2022-12-10T04:25:42;23.6;;;14.7;;
51194;SDS011;37259;49.972;19.850;2022-12-10T04:26:42;23.6;;;14.7;;
51194;SDS011;37259;49.972;19.850;2022-12-10T04:27:42;23.6;;;14.7;;
51194;SDS011;37259;49.972;19.850;2022-12-10T04:28:42;23.6;;;14.7;;
51194;SDS011;37259;49.972;19.850;2022-12-10T04:29:42;23.6;;;14.7;;
51194;SDS011;37259;49.972;19.850;2022-12-10T04:30:42;23.6;;;14.7;;
51194;SDS011;37259;49.972;19.850;2022-12-10T04:31:42;23.6;;;14.7;;
51194;SDS011;37259;49.972;19.850;2022-12-10T04:32:42;23.6;;;14.7;;
51194;SDS011;37259;49.972;19.850;2022-12-10T04:33:42;23.6;;;14.7;;
51194;SDS011;37259;49.972;19.850;2022-12-10T04:34:42;23.6;;;14.7;;
51194;SDS011;37259;49.972;19.850;2022-12-10T04:35:42;23.6;;;14.7;;
51194;SDS011;37259;49.972;19.850;2022-12-10T04:36:42;27.8;;;15.7;;
51194;SDS011;37259;49.972;19.850;2022-12-10T04:37:42;27.8;;;15.7;;
51194;SDS011;37259;49.972;19.850;2022-12-10T04:38:42;27.8;;;15.7;;
51194;SDS011;37259;49.972;19.850;2022-12-10T04:39:42;27.8;;;15.7;;
51194;SDS011;37259;49.972;19.850;2022-12-10T04:40:42;27.8;;;15.7;;
51194;SDS011;37259;49.972;19.850;2022-12-10T04:41:43;27.8;;;15.7;;
51194;SDS011;37259;49.972;19.850;2022-12-10T04:42:42;27.8;;;15.7;;
51194;SDS011;37259;49.972;19.850;2022-12-10T04:43:42;27.8;;;15.7;;
51194;SDS011;37259;49.972;19.850;2022-12-10T04:44:42;27.8;;;15.7;;
51194;SDS011;37259;49.972;19.850;2022-12-10T04:45:42;27.8;;;15.7;;
51194;SDS011;37259;49.972;19.850;2022-12-10T04:46:42;27.8;;;15.7;;
51194;SDS011;37259;49.972;19.850;2022-12-10T04:47:42;27.8;;;15.7;;
51194;SDS011;37259;49.972;19.850;2022-12-10T04:48:42;27.8;;;15.7;;
51194;SDS011;37259;49.972;19.850;2022-12-10T04:49:42;27.8;;;15.7;;
51194;SDS011;37259;49.972;19.850;2022-12-10T04:50:42;27.8;;;15.7;;
51194;SDS011;37259;49.972;19.850;2022-12-10T04:51:42;27.8;;;15.7;;
51194;SDS011;37259;49.972;19.850;2022-12-10T04:52:42;27.8;;;15.7;;
51194;SDS011;37259;49.972;19.850;2022-12-10T04:53:42;27.8;;;15.7;;
51194;SDS011;37259;49.972;19.850;2022-12-10T04:54:42;27.8;;;15.7;;
51194;SDS011;37259;49.972;19.850;2022-12-10T04:55:42;27.8;;;15.7;;
51194;SDS011;37259;49.972;19.850;2022-12-10T04:56:42;27.8;;;15.7;;
51194;SDS011;37259;49.972;19.850;2022-12-10T04:57:42;27.8;;;15.7;;
51194;SDS011;37259;49.972;19.850;2022-12-10T04:58:42;27.8;;;15.7;;
51194;SDS011;37259;49.972;19.850;2022-12-10T04:59:42;27.8;;;15.7;;
51194;SDS011;37259;49.972;19.850;2022-12-10T05:00:42;27.8;;;15.7;;
51194;SDS011;37259;49.972;19.850;2022-12-10T05:01:42;27.8;;;15.7;;
51194;SDS011;37259;49.972;19.850;2022-12-10T05:02:42;27.8;;;15.7;;
51194;SDS011;37259;49.972;19.850;2022-12-10T05:03:42;27.8;;;15.7;;
51194;SDS011;37259;49.972;19.850;2022-12-10T05:05:42;27.8;;;15.7;;
51194;SDS011;37259;49.972;19.850;2022-12-10T05:06:42;23.8;;;15.1;;
51194;SDS011;37259;49.972;19.850;2022-12-10T05:07:42;23.8;;;15.1;;
51194;SDS011;37259;49.972;19.850;2022-12-10T05:08:42;23.8;;;15.1;;
51194;SDS011;37259;49.972;19.850;2022-12-10T05:09:42;23.8;;;15.1;;
51194;SDS011;37259;49.972;19.850;2022-12-10T05:10:42;23.8;;;15.1;;
51194;SDS011;37259;49.972;19.850;2022-12-10T05:11:42;23.8;;;15.1;;
51194;SDS011;37259;49.972;19.850;2022-12-10T05:12:42;23.8;;;15.1;;
51194;SDS011;37259;49.972;19.850;2022-12-10T05:13:42;23.8;;;15.1;;
51194;SDS011;37259;49.972;19.850;2022-12-10T05:14:42;23.8;;;15.1;;
51194;SDS011;37259;49.972;19.850;2022-12-10T05:15:42;23.8;;;15.1;;
51194;SDS011;37259;49.972;19.850;2022-12-10T05:16:42;23.8;;;15.1;;
51194;SDS011;37259;49.972;19.850;2022-12-10T05:17:42;23.8;;;15.1;;
51194;SDS011;37259;49.972;19.850;2022-12-10T05:18:42;23.8;;;15.1;;
51194;SDS011;37259;49.972;19.850;2022-12-10T05:19:42;23.8;;;15.1;;
51194;SDS011;37259;49.972;19.850;2022-12-10T05:20:42;23.8;;;15.1;;
51194;SDS011;37259;49.972;19.850;2022-12-10T05:21:42;23.8;;;15.1;;
51194;SDS011;37259;49.972;19.850;2022-12-10T05:22:42;23.8;;;15.1;;
51194;SDS011;37259;49.972;19.850;2022-12-10T05:23:43;23.8;;;15.1;;
51194;SDS011;37259;49.972;19.850;2022-12-10T05:24:42;23.8;;;15.1;;
51194;SDS011;37259;49.972;19.850;2022-12-10T05:25:42;23.8;;;15.1;;
51194;SDS011;37259;49.972;19.850;2022-12-10T05:26:42;23.8;;;15.1;;
51194;SDS011;37259;49.972;19.850;2022-12-10T05:27:42;23.8;;;15.1;;
51194;SDS011;37259;49.972;19.850;2022-12-10T05:28:43;23.8;;;15.1;;
51194;SDS011;37259;49.972;19.850;2022-12-10T05:29:42;23.8;;;15.1;;
51194;SDS011;37259;49.972;19.850;2022-12-10T05:30:42;23.8;;;15.1;;
51194;SDS011;37259;49.972;19.850;2022-12-10T05:31:42;23.8;;;15.1;;
51194;SDS011;37259;49.972;19.850;2022-12-10T05:32:42;23.8;;;15.1;;
51194;SDS011;37259;49.972;19.850;2022-12-10T05:33:42;23.8;;;15.1;;
51194;SDS011;37259;49.972;19.850;2022-12-10T05:34:42;23.8;;;15.1;;
51194;SDS011;37259;49.972;19.850;2022-12-10T05:35:42;23.8;;;15.1;;
51194;SDS011;37259;49.972;19.850;2022-12-10T05:36:42;24.5;;;15.9;;
51194;SDS011;37259;49.972;19.850;2022-12-10T05:37:42;24.5;;;15.9;;
51194;SDS011;37259;49.972;19.850;2022-12-10T05:38:42;24.5;;;15.9;;
51194;SDS011;37259;49.972;19.850;2022-12-10T05:39:42;24.5;;;15.9;;
51194;SDS011;37259;49.972;19.850;2022-12-10T05:40:42;24.5;;;15.9;;
51194;SDS011;37259;49.972;19.850;2022-12-10T05:41:42;24.5;;;15.9;;
51194;SDS011;37259;49.972;19.850;2022-12-10T05:42:42;24.5;;;15.9;;
51194;SDS011;37259;49.972;19.850;2022-12-10T05:43:42;24.5;;;15.9;;
51194;SDS011;37259;49.972;19.850;2022-12-10T05:44:42;24.5;;;15.9;;
51194;SDS011;37259;49.972;19.850;2022-12-10T05:45:42;24.5;;;15.9;;
51194;SDS011;37259;49.972;19.850;2022-12-10T05:46:42;24.5;;;15.9;;
51194;SDS011;37259;49.972;19.850;2022-12-10T05:47:42;24.5;;;15.9;;
51194;SDS011;37259;49.972;19.850;2022-12-10T05:48:42;24.5;;;15.9;;
51194;SDS011;37259;49.972;19.850;2022-12-10T05:49:42;24.5;;;15.9;;
51194;SDS011;37259;49.972;19.850;2022-12-10T05:50:42;24.5;;;15.9;;
51194;SDS011;37259;49.972;19.850;2022-12-10T05:51:42;24.5;;;15.9;;
51194;SDS011;37259;49.972;19.850;2022-12-10T05:52:42;24.5;;;15.9;;
51194;SDS011;37259;49.972;19.850;2022-12-10T05:53:42;24.5;;;15.9;;
51194;SDS011;37259;49.972;19.850;2022-12-10T05:54:42;24.5;;;15.9;;
51194;SDS011;37259;49.972;19.850;2022-12-10T05:55:42;24.5;;;15.9;;
51194;SDS011;37259;49.972;19.850;2022-12-10T05:56:42;24.5;;;15.9;;
51194;SDS011;37259;49.972;19.850;2022-12-10T05:57:42;24.5;;;15.9;;
51194;SDS011;37259;49.972;19.850;2022-12-10T05:58:43;24.5;;;15.9;;
51194;SDS011;37259;49.972;19.850;2022-12-10T05:59:42;24.5;;;15.9;;
51194;SDS011;37259;49.972;19.850;2022-12-10T06:00:42;24.5;;;15.9;;
51194;SDS011;37259;49.972;19.850;2022-12-10T06:01:42;24.5;;;15.9;;
51194;SDS011;37259;49.972;19.850;2022-12-10T06:02:42;24.5;;;15.9;;